Sunday, March 29, 2015
19:35 UTC
  |  Log In   |  Register Free
Airport Search:

Carmi Municipal Airport
(KCUL)

Carmi Municipal Airport Diagram
No Airport Diagram Available

FAA data valid effective March 05, 2015 - April 30, 2015 (unless otherwise noted).

 
 
 
 
 
 
 
 
 
 
 
 
 
 

Current Aviation Weather for Carmi Municipal Airport (KCUL)

The most recent METAR observation for KCUL was updated at: 1408
METAR Summary (Translated METAR)
KCUL
251355Z AUTO 28007KT 7SM OVC014 13/09 A3004 RMK AO2 T01250088
KFWC
251355Z AUTO 00000KT 4SM BR OVC014 09/08 A3004 RMK AO1 T00930082
(22.1 nm NW from KCUL)
KHSB
251355Z AUTO 31004KT 7SM OVC009 13/11 A3004 RMK AO2 T01270107
(26.2 nm SW from KCUL)
TAF
No TAF information found within 50 nm of KCUL
  Airport Weather Conditions for KCUL

 Current Weather at CUL
55° F
Fair
South winds at 19.6 mph
CUL NOAA Radar

Pressure: 30.10 in
Humidity: 27%
Wind: from the South at 19.6 gusting to 27.6 MPH (17 gusting to 24 KT)
Dew Point: 21.4°F
Visibility: 10.00 mi


Airport Weather Forecast for KCUL

Translated METAR and TAF for KCUL
Translated METAR for KCUL (1934 UTC 29 March 2015)
found at http://aviationweather.gov/adds/metars/
 
METAR text: KCUL 291915Z AUTO 16020G26KT 10SM CLR 14/M04 A3005 RMK AO2 T01351045
Conditions at: KCUL (CARMI MUNI , IL, US) observed 1915 UTC 29 March 2015
Temperature: 13.5°C (56°F)
Dewpoint: -4.5°C (24°F) [RH = 28%]
Pressure (altimeter): 30.05 inches Hg (1017.7 mb)
Winds: from the SSE (160 degrees) at 23 MPH (20 knots; 10.4 m/s)
gusting to 30 MPH (26 knots; 13.5 m/s)
Visibility: 10 or more miles (16+ km)
Ceiling: at least 12,000 feet AGL
Clouds: sky clear below 12,000 feet AGL
Weather: automated observation with no human augmentation;
there may or may not be significant weather present at this time
Translated TAF for KCUL

There is no translated TAF available for this airport

Find All Airport Services Find A Hotel Find A Rental Car Find A Golf Course Find A Restaurant $100 Hamburger



FBO's on the Field
FBO Company Facility Photos Services Transportation Aviation Fuel Prices: Prices include tax
Catering Weather Repair Courtesy Rental Type 100LL JetA JetA+ MOGAS 8087
 
Carmi Municipal Airport

This FBO has not yet been rated
FS:Shell
Last Updated: Feb-18
Login to update fuel prices
SS:
Contact Carmi Municipal AirportMore FBO Information
 
Carmi Municipal Airport

This FBO has not yet been rated
FS:Shell
Last Updated: Mar-04
Login to update fuel prices
SS:
Contact Carmi Municipal AirportMore FBO Information
 
Add another FBO Facility Photos Catering Weather Repair Courtesy Rental Type 100LL JetA JetA+ MOGAS 8087
Services Transportation Aviation Fuel Prices: Prices include tax


model-print
model-print
model-print
model-print